createdAt,value
2017-05-31T00:02:24.000Z,1010.932
2017-05-31T00:22:24.000Z,1011.011
2017-05-31T00:42:24.000Z,1011.166
2017-05-31T00:52:24.000Z,1011.188
2017-05-31T01:02:24.000Z,1011.213
2017-05-31T01:22:24.000Z,1011.308
2017-05-31T01:42:24.000Z,1011.408
2017-05-31T02:02:24.000Z,1011.5
2017-05-31T02:12:24.000Z,1011.49
2017-05-31T02:22:24.000Z,1011.461
2017-05-31T02:42:24.000Z,1011.537
2017-05-31T03:02:24.000Z,1011.569
2017-05-31T03:12:24.000Z,1011.606
2017-05-31T03:22:24.000Z,1011.651
2017-05-31T03:42:24.000Z,1011.696
2017-05-31T04:02:25.000Z,1012.022
2017-05-31T04:12:25.000Z,1012.066
2017-05-31T04:22:25.000Z,1012.153
2017-05-31T04:42:25.000Z,1012.359
2017-05-31T05:02:25.000Z,1012.474
2017-05-31T05:12:25.000Z,1012.492
2017-05-31T05:22:25.000Z,1012.552
2017-05-31T05:42:25.000Z,1012.642
2017-05-31T06:02:25.000Z,1012.932
2017-05-31T06:12:25.000Z,1013.068
2017-05-31T06:22:25.000Z,1013.208
2017-05-31T06:42:25.000Z,1013.362
2017-05-31T07:02:25.000Z,1013.565
2017-05-31T07:12:25.000Z,1013.602
2017-05-31T07:22:25.000Z,1013.734
2017-05-31T07:42:25.000Z,1013.933
2017-05-31T08:02:25.000Z,1013.941
2017-05-31T08:12:25.000Z,1013.989
2017-05-31T08:22:25.000Z,1014.053
2017-05-31T08:42:25.000Z,1014.045
2017-05-31T09:02:25.000Z,1014.078
2017-05-31T09:12:25.000Z,1014.159
2017-05-31T09:22:25.000Z,1014.216
2017-05-31T09:42:25.000Z,1014.225
2017-05-31T10:02:26.000Z,1014.217
2017-05-31T10:12:25.000Z,1014.175
2017-05-31T10:22:25.000Z,1014.185
2017-05-31T10:42:26.000Z,1014.232
2017-05-31T11:02:26.000Z,1014.26
2017-05-31T11:12:25.000Z,1014.261
2017-05-31T11:22:25.000Z,1014.192
2017-05-31T11:42:25.000Z,1014.009
2017-05-31T12:02:26.000Z,1013.913
2017-05-31T12:12:25.000Z,1013.918
2017-05-31T12:22:26.000Z,1013.977
2017-05-31T12:42:26.000Z,1014.099
2017-05-31T13:02:26.000Z,1014.075
2017-05-31T13:12:26.000Z,1013.875
2017-05-31T13:22:26.000Z,1013.871
2017-05-31T13:42:26.000Z,1013.789
2017-05-31T14:02:26.000Z,1013.745
2017-05-31T14:12:26.000Z,1013.711
2017-05-31T14:22:26.000Z,1013.753
2017-05-31T14:42:26.000Z,1013.727
2017-05-31T15:02:26.000Z,1013.563
2017-05-31T15:22:26.000Z,1013.328
2017-05-31T15:32:26.000Z,1013.377
2017-05-31T15:42:26.000Z,1013.475
2017-05-31T16:02:26.000Z,1013.337
2017-05-31T16:22:26.000Z,1013.33
2017-05-31T16:32:26.000Z,1013.332
2017-05-31T16:42:26.000Z,1013.387
2017-05-31T17:02:26.000Z,1013.465
2017-05-31T17:22:26.000Z,1013.529
2017-05-31T17:32:26.000Z,1013.643
2017-05-31T17:42:26.000Z,1013.692
2017-05-31T18:02:27.000Z,1013.65
2017-05-31T18:22:26.000Z,1013.579
2017-05-31T18:32:26.000Z,1013.628
2017-05-31T18:42:26.000Z,1013.639
2017-05-31T19:02:26.000Z,1013.787
2017-05-31T19:22:26.000Z,1014.101
2017-05-31T19:32:26.000Z,1014.132
2017-05-31T19:42:26.000Z,1014.216
2017-05-31T20:02:26.000Z,1014.564
2017-05-31T20:32:27.000Z,1014.707
2017-05-31T20:42:27.000Z,1014.824
2017-05-31T21:02:27.000Z,1014.952
2017-05-31T21:22:27.000Z,1015.132
2017-05-31T21:32:27.000Z,1015.258
2017-05-31T21:42:27.000Z,1015.331
2017-05-31T22:02:27.000Z,1015.483
2017-05-31T22:22:27.000Z,1015.403
2017-05-31T22:42:30.000Z,1015.475
2017-05-31T22:52:27.000Z,1015.475
2017-05-31T23:02:31.000Z,1015.505
2017-05-31T23:22:27.000Z,1015.461
2017-05-31T23:42:27.000Z,1015.438
2017-05-31T23:52:28.000Z,1015.45
